createdAt,value
2022-09-23T00:01:21.009Z,5.50
2022-09-23T00:03:49.247Z,5.63
2022-09-23T00:06:19.538Z,5.78
2022-09-23T00:08:49.538Z,5.63
2022-09-23T00:11:22.754Z,5.53
2022-09-23T00:13:57.295Z,5.40
2022-09-23T00:16:30.905Z,5.93
2022-09-23T00:18:58.468Z,6.20
2022-09-23T00:21:25.856Z,6.18
2022-09-23T00:23:53.744Z,6.45
2022-09-23T00:26:22.560Z,6.40
2022-09-23T00:28:50.501Z,6.50
2022-09-23T00:31:23.793Z,6.63
2022-09-23T00:33:59.298Z,6.90
2022-09-23T00:36:28.133Z,6.70
2022-09-23T00:38:56.254Z,6.40
2022-09-23T00:41:24.001Z,6.38
2022-09-23T00:43:57.519Z,6.30
2022-09-23T00:46:28.049Z,6.88
2022-09-23T00:49:11.004Z,7.32
2022-09-23T00:51:48.224Z,7.53
2022-09-23T00:54:16.447Z,7.90
2022-09-23T00:56:44.870Z,7.05
2022-09-23T00:59:13.875Z,7.93
2022-09-23T01:01:43.229Z,7.30
2022-09-23T01:04:10.690Z,7.68
2022-09-23T01:06:38.669Z,7.93
2022-09-23T01:09:06.192Z,8.43
2022-09-23T01:11:44.476Z,9.77
2022-09-23T01:14:17.690Z,8.30
2022-09-23T01:17:08.862Z,9.35
2022-09-23T01:22:26.285Z,8.95
2022-09-23T01:25:14.761Z,8.82
2022-09-23T01:28:26.435Z,9.68
2022-09-23T01:31:42.945Z,8.48
2022-09-23T01:34:36.519Z,8.27
2022-09-23T01:37:17.780Z,9.05
2022-09-23T01:39:58.176Z,8.95
2022-09-23T01:42:39.486Z,9.50
2022-09-23T01:45:29.292Z,8.93
2022-09-23T01:48:13.844Z,8.95
2022-09-23T01:50:56.736Z,9.00
2022-09-23T01:53:49.523Z,8.38
2022-09-23T01:56:25.646Z,8.63
2022-09-23T01:59:06.004Z,8.57
2022-09-23T02:01:40.322Z,7.53
2022-09-23T02:04:18.559Z,8.23
2022-09-23T02:06:52.187Z,7.65
2022-09-23T02:09:24.911Z,8.02
2022-09-23T02:11:54.469Z,7.63
2022-09-23T02:14:40.466Z,8.43
2022-09-23T02:17:13.101Z,7.70
2022-09-23T02:19:43.919Z,7.97
2022-09-23T02:22:40.631Z,7.82
2022-09-23T02:25:09.856Z,8.00
2022-09-23T02:28:14.072Z,8.02
2022-09-23T02:30:59.143Z,8.52
2022-09-23T02:33:37.026Z,8.20
2022-09-23T02:36:23.658Z,8.00
2022-09-23T02:39:13.517Z,8.50
2022-09-23T02:42:13.588Z,8.27
2022-09-23T02:44:41.010Z,8.60
2022-09-23T02:47:08.848Z,8.60
2022-09-23T02:49:36.711Z,8.25
2022-09-23T02:52:07.567Z,8.90
2022-09-23T02:54:35.434Z,7.78
2022-09-23T02:57:06.134Z,8.82
2022-09-23T02:59:35.082Z,8.68
2022-09-23T03:02:26.592Z,8.30
2022-09-23T03:05:30.262Z,8.80
2022-09-23T03:08:00.862Z,8.77
2022-09-23T03:10:54.904Z,7.80
2022-09-23T03:13:48.903Z,8.52
2022-09-23T03:16:40.065Z,8.13
2022-09-23T03:21:53.001Z,7.25
2022-09-23T03:24:23.163Z,7.05
2022-09-23T03:26:53.871Z,7.83
2022-09-23T03:29:22.782Z,7.45
2022-09-23T03:31:50.494Z,7.28
2022-09-23T03:34:24.960Z,8.13
2022-09-23T03:37:00.642Z,7.03
2022-09-23T03:39:40.251Z,7.80
2022-09-23T03:42:16.643Z,7.65
2022-09-23T03:44:46.849Z,7.70
2022-09-23T03:47:16.348Z,8.35
2022-09-23T03:49:48.437Z,7.20
2022-09-23T03:52:26.520Z,6.97
2022-09-23T03:54:54.880Z,6.68
2022-09-23T03:57:23.299Z,7.72
2022-09-23T03:59:51.710Z,7.88
2022-09-23T04:02:20.272Z,6.90
2022-09-23T04:04:47.794Z,6.82
2022-09-23T04:07:16.076Z,7.07
2022-09-23T04:09:43.673Z,8.20
2022-09-23T04:12:15.564Z,6.75
2022-09-23T04:14:43.630Z,7.55
2022-09-23T04:17:12.391Z,7.07
2022-09-23T04:19:40.054Z,7.70
2022-09-23T04:22:08.448Z,8.20
2022-09-23T04:24:36.024Z,7.93
2022-09-23T04:27:03.882Z,8.18
2022-09-23T04:29:31.483Z,7.65
2022-09-23T04:31:59.208Z,7.50
2022-09-23T04:34:27.371Z,7.47
2022-09-23T04:36:55.149Z,7.72
2022-09-23T04:39:22.709Z,7.63
2022-09-23T04:41:50.281Z,7.07
2022-09-23T04:44:17.772Z,7.50
2022-09-23T04:46:48.250Z,7.57
2022-09-23T04:49:16.598Z,7.95
2022-09-23T04:51:44.122Z,8.27
2022-09-23T04:54:14.301Z,8.00
2022-09-23T04:56:42.184Z,8.38
2022-09-23T04:59:09.803Z,8.32
2022-09-23T05:01:38.534Z,9.00
2022-09-23T05:04:08.625Z,9.80
2022-09-23T05:06:36.806Z,10.25
2022-09-23T05:09:06.981Z,8.75
2022-09-23T05:11:35.089Z,8.90
2022-09-23T05:14:02.581Z,10.32
2022-09-23T05:16:30.253Z,10.02
2022-09-23T05:18:58.270Z,9.55
2022-09-23T05:21:28.960Z,9.60
2022-09-23T05:24:00.414Z,9.05
2022-09-23T05:26:30.945Z,9.75
2022-09-23T05:28:58.821Z,10.60
2022-09-23T05:31:28.251Z,12.32
2022-09-23T05:33:58.111Z,12.13
2022-09-23T05:36:26.893Z,11.50
2022-09-23T05:38:56.493Z,11.77
2022-09-23T05:41:25.798Z,11.35
2022-09-23T05:43:55.247Z,11.82
2022-09-23T05:46:25.261Z,12.13
2022-09-23T05:48:52.957Z,11.90
2022-09-23T05:51:23.986Z,13.45
2022-09-23T05:53:54.570Z,11.98
2022-09-23T05:56:24.102Z,12.50
2022-09-23T05:58:53.759Z,11.98
2022-09-23T06:01:26.721Z,11.57
2022-09-23T06:03:56.419Z,13.73
2022-09-23T06:06:44.205Z,12.10
2022-09-23T06:09:13.775Z,12.25
2022-09-23T06:11:43.002Z,12.60
2022-09-23T06:14:14.771Z,12.98
2022-09-23T06:16:43.125Z,13.15
2022-09-23T06:19:10.779Z,13.55
2022-09-23T06:21:40.359Z,12.63
2022-09-23T06:24:09.218Z,14.25
2022-09-23T06:26:37.919Z,14.25
2022-09-23T06:29:11.794Z,15.48
2022-09-23T06:31:41.211Z,12.70
2022-09-23T06:34:14.104Z,13.50
2022-09-23T06:36:45.564Z,14.85
2022-09-23T06:39:14.843Z,15.02
2022-09-23T06:41:44.105Z,13.63
2022-09-23T06:44:15.119Z,14.43
2022-09-23T06:46:42.764Z,15.75
2022-09-23T06:49:13.263Z,12.02
2022-09-23T06:51:41.201Z,13.13
2022-09-23T06:54:08.819Z,13.90
2022-09-23T06:56:39.211Z,12.98
2022-09-23T06:59:09.691Z,14.80
2022-09-23T07:01:38.007Z,13.70
2022-09-23T07:04:07.406Z,15.48
2022-09-23T07:06:35.327Z,16.40
2022-09-23T07:09:03.477Z,14.32
2022-09-23T07:11:30.965Z,16.70
2022-09-23T07:13:58.478Z,14.90
2022-09-23T07:16:26.265Z,18.08
2022-09-23T07:18:54.653Z,17.45
2022-09-23T07:21:22.238Z,16.25
2022-09-23T07:23:52.086Z,15.90
2022-09-23T07:26:20.472Z,14.07
2022-09-23T07:28:47.935Z,15.93
2022-09-23T07:31:27.558Z,15.70
2022-09-23T07:34:01.332Z,15.43
2022-09-23T07:36:32.801Z,13.77
2022-09-23T07:39:03.530Z,14.45
2022-09-23T07:41:32.527Z,15.60
2022-09-23T07:44:01.175Z,13.30
2022-09-23T07:46:31.085Z,16.98
2022-09-23T07:49:00.026Z,17.20
2022-09-23T07:51:36.778Z,16.17
2022-09-23T07:54:08.041Z,14.85
2022-09-23T07:59:09.148Z,15.45
2022-09-23T08:01:40.189Z,16.27
2022-09-23T08:04:10.756Z,16.08
2022-09-23T08:06:49.643Z,15.00
2022-09-23T08:09:18.830Z,14.77
2022-09-23T08:11:46.756Z,14.48
2022-09-23T08:14:15.446Z,14.43
2022-09-23T08:16:44.774Z,14.57
2022-09-23T08:19:13.020Z,10.15
2022-09-23T08:21:41.806Z,13.60
2022-09-23T08:24:13.545Z,11.25
2022-09-23T08:26:41.413Z,10.75
2022-09-23T08:29:11.976Z,10.80
2022-09-23T08:31:39.523Z,9.80
2022-09-23T08:34:07.900Z,10.20
2022-09-23T08:36:35.549Z,9.63
2022-09-23T08:39:04.561Z,7.35
2022-09-23T08:42:02.061Z,9.02
2022-09-23T08:44:50.854Z,9.02
2022-09-23T08:47:18.242Z,9.55
2022-09-23T08:49:57.856Z,9.15
2022-09-23T08:52:35.735Z,9.07
2022-09-23T08:55:04.383Z,10.25
2022-09-23T08:57:31.802Z,8.73
2022-09-23T09:00:01.523Z,10.07
2022-09-23T09:02:29.965Z,9.25
2022-09-23T09:05:03.304Z,8.45
2022-09-23T09:07:40.825Z,10.02
2022-09-23T09:10:22.474Z,9.05
2022-09-23T09:13:07.500Z,10.20
2022-09-23T09:15:59.717Z,10.10
2022-09-23T09:18:31.116Z,10.25
2022-09-23T09:21:08.598Z,9.68
2022-09-23T09:23:57.192Z,11.80
2022-09-23T09:26:28.001Z,11.57
2022-09-23T09:29:30.811Z,12.95
2022-09-23T09:31:57.646Z,12.38
2022-09-23T09:34:40.795Z,13.35
2022-09-23T09:37:23.130Z,14.10
2022-09-23T09:39:50.728Z,11.35
2022-09-23T09:42:26.125Z,12.45
2022-09-23T09:45:11.047Z,12.38
2022-09-23T09:47:47.377Z,11.77
2022-09-23T09:50:22.043Z,13.88
2022-09-23T09:52:49.534Z,13.70
2022-09-23T09:55:28.371Z,11.57
2022-09-23T09:58:05.715Z,13.98
2022-09-23T10:00:33.077Z,17.27
2022-09-23T10:03:14.288Z,14.88
2022-09-23T10:05:47.098Z,17.60
2022-09-23T10:08:37.088Z,19.08
2022-09-23T10:11:18.755Z,22.15
2022-09-23T10:14:10.800Z,22.70
2022-09-23T10:16:40.171Z,22.90
2022-09-23T10:19:28.254Z,23.33
2022-09-23T10:22:00.218Z,23.88
2022-09-23T10:24:32.662Z,23.15
2022-09-23T10:27:09.155Z,21.30
2022-09-23T10:29:50.210Z,22.85
2022-09-23T10:35:14.716Z,20.75
2022-09-23T10:37:48.401Z,23.75
2022-09-23T10:40:56.763Z,24.35
2022-09-23T10:44:08.931Z,26.50
2022-09-23T10:47:09.079Z,23.42
2022-09-23T10:49:40.496Z,22.23
2022-09-23T10:52:35.289Z,24.17
2022-09-23T10:55:26.825Z,24.30
2022-09-23T10:58:25.008Z,22.90
2022-09-23T11:01:08.304Z,23.55
2022-09-23T11:04:00.142Z,23.48
2022-09-23T11:06:37.835Z,25.35
2022-09-23T11:09:32.370Z,22.98
2022-09-23T11:12:11.621Z,19.30
2022-09-23T11:15:26.919Z,20.15
2022-09-23T11:18:11.048Z,19.23
2022-09-23T11:21:03.066Z,17.67
2022-09-23T11:23:30.465Z,18.27
2022-09-23T11:26:19.683Z,18.23
2022-09-23T11:29:15.370Z,19.20
2022-09-23T11:32:10.085Z,18.40
2022-09-23T11:35:06.362Z,16.80
2022-09-23T11:37:40.239Z,16.27
2022-09-23T11:40:15.653Z,15.77
2022-09-23T11:43:07.185Z,15.65
2022-09-23T11:45:41.873Z,15.57
2022-09-23T11:48:44.277Z,15.25
2022-09-23T11:51:20.668Z,13.77
2022-09-23T11:54:05.680Z,12.70
2022-09-23T11:56:47.960Z,13.63
2022-09-23T12:02:33.740Z,10.30
2022-09-23T12:05:20.598Z,9.38
2022-09-23T12:08:01.083Z,9.13
2022-09-23T12:10:59.560Z,8.90
2022-09-23T12:13:43.851Z,8.77
2022-09-23T12:16:50.664Z,7.72
2022-09-23T12:19:47.582Z,7.97
2022-09-23T12:22:59.664Z,7.60
2022-09-23T12:25:45.941Z,7.40
2022-09-23T12:28:26.259Z,7.20
2022-09-23T12:30:57.981Z,6.70
2022-09-23T12:33:27.616Z,6.18
2022-09-23T12:36:09.831Z,6.70
2022-09-23T12:38:48.738Z,6.60
2022-09-23T12:41:37.003Z,6.60
2022-09-23T12:44:13.965Z,6.22
2022-09-23T12:46:46.051Z,6.63
2022-09-23T12:49:25.724Z,6.47
2022-09-23T12:52:11.957Z,6.53
2022-09-23T12:54:41.078Z,7.28
2022-09-23T12:57:34.636Z,6.88
2022-09-23T13:00:12.769Z,6.38
2022-09-23T13:03:07.904Z,7.43
2022-09-23T13:06:09.470Z,8.07
2022-09-23T13:08:42.241Z,7.40
2022-09-23T13:11:30.198Z,7.65
2022-09-23T13:14:02.060Z,6.75
2022-09-23T13:16:45.046Z,7.72
2022-09-23T13:19:35.365Z,8.10
2022-09-23T13:22:08.928Z,7.22
2022-09-23T13:24:42.171Z,6.85
2022-09-23T13:27:23.943Z,6.50
2022-09-23T13:29:57.642Z,6.30
2022-09-23T13:32:35.735Z,6.15
2022-09-23T13:35:30.277Z,4.90
2022-09-23T13:37:57.964Z,4.55
2022-09-23T13:40:28.927Z,4.07
2022-09-23T13:43:02.088Z,3.63
2022-09-23T13:45:31.372Z,2.88
2022-09-23T13:48:06.183Z,2.42
2022-09-23T13:50:36.480Z,1.98
2022-09-23T13:53:13.263Z,2.20
2022-09-23T13:55:41.431Z,2.85
2022-09-23T13:58:18.782Z,2.75
2022-09-23T14:00:47.202Z,2.72
2022-09-23T14:03:37.069Z,2.50
2022-09-23T14:06:09.879Z,2.70
2022-09-23T14:08:40.281Z,3.42
2022-09-23T14:11:07.798Z,3.08
2022-09-23T14:13:41.991Z,3.63
2022-09-23T14:16:14.968Z,3.63
2022-09-23T14:18:47.241Z,4.55
2022-09-23T14:21:36.968Z,4.50
2022-09-23T14:24:21.055Z,4.72
2022-09-23T14:26:56.376Z,4.82
2022-09-23T14:29:27.123Z,5.47
2022-09-23T14:31:57.246Z,6.15
2022-09-23T14:34:51.642Z,5.70
2022-09-23T14:37:43.865Z,5.10
2022-09-23T14:40:20.978Z,6.85
2022-09-23T14:42:52.131Z,5.85
2022-09-23T14:45:25.416Z,6.82
2022-09-23T14:47:58.577Z,7.05
2022-09-23T14:50:47.459Z,7.93
2022-09-23T14:53:18.983Z,7.38
2022-09-23T14:55:52.941Z,7.55
2022-09-23T14:58:25.800Z,7.18
2022-09-23T15:01:02.933Z,7.93
2022-09-23T15:03:31.804Z,7.15
2022-09-23T15:06:09.095Z,8.35
2022-09-23T15:08:37.253Z,8.05
2022-09-23T15:11:08.110Z,7.03
2022-09-23T15:13:45.671Z,7.97
2022-09-23T15:16:16.021Z,8.02
2022-09-23T15:18:46.173Z,8.15
2022-09-23T15:21:18.413Z,8.32
2022-09-23T15:23:52.164Z,7.55
2022-09-23T15:26:38.898Z,7.95
2022-09-23T15:29:10.099Z,8.02
2022-09-23T15:31:37.684Z,7.93
2022-09-23T15:34:05.626Z,8.68
2022-09-23T15:36:33.415Z,9.55
2022-09-23T15:39:04.361Z,8.65
2022-09-23T15:41:33.543Z,8.27
2022-09-23T15:44:20.373Z,8.75
2022-09-23T15:46:51.925Z,8.55
2022-09-23T15:49:39.690Z,8.98
2022-09-23T15:52:10.187Z,8.80
2022-09-23T15:54:37.838Z,7.05
2022-09-23T15:57:05.420Z,7.15
2022-09-23T15:59:33.052Z,6.55
2022-09-23T16:02:06.682Z,6.15
2022-09-23T16:04:34.946Z,5.70
2022-09-23T16:07:04.500Z,6.40
2022-09-23T16:09:32.287Z,6.10
2022-09-23T16:12:02.159Z,5.63
2022-09-23T16:14:29.624Z,6.47
2022-09-23T16:16:57.709Z,6.80
2022-09-23T16:19:25.687Z,6.22
2022-09-23T16:21:53.280Z,7.38
2022-09-23T16:24:27.370Z,7.15
2022-09-23T16:26:59.923Z,7.47
2022-09-23T16:29:27.646Z,8.23
2022-09-23T16:31:55.627Z,7.22
2022-09-23T16:34:23.156Z,7.43
2022-09-23T16:36:50.592Z,6.85
2022-09-23T16:39:20.459Z,6.90
2022-09-23T16:41:48.062Z,7.40
2022-09-23T16:44:16.286Z,8.23
2022-09-23T16:46:43.738Z,7.30
2022-09-23T16:49:12.180Z,7.57
2022-09-23T16:51:40.206Z,8.18
2022-09-23T16:54:10.948Z,7.63
2022-09-23T16:59:07.934Z,8.98
2022-09-23T17:01:54.576Z,9.02
2022-09-23T17:04:22.678Z,8.65
2022-09-23T17:06:52.001Z,8.30
2022-09-23T17:09:21.800Z,7.65
2022-09-23T17:12:09.308Z,8.15
2022-09-23T17:14:36.729Z,7.95
2022-09-23T17:17:04.478Z,7.40
2022-09-23T17:19:33.899Z,8.10
2022-09-23T17:22:01.391Z,8.50
2022-09-23T17:24:29.021Z,8.98
2022-09-23T17:26:56.380Z,8.35
2022-09-23T17:29:26.723Z,8.40
2022-09-23T17:31:54.331Z,8.45
2022-09-23T17:34:21.945Z,8.30
2022-09-23T17:36:49.672Z,7.75
2022-09-23T17:39:17.646Z,7.93
2022-09-23T17:41:45.521Z,8.43
2022-09-23T17:44:14.208Z,8.68
2022-09-23T17:46:42.065Z,7.57
2022-09-23T17:49:09.806Z,8.00
2022-09-23T17:51:37.485Z,8.48
2022-09-23T17:54:05.127Z,7.75
2022-09-23T17:56:33.876Z,7.85
2022-09-23T17:59:02.496Z,6.93
2022-09-23T18:01:30.367Z,7.18
2022-09-23T18:04:00.531Z,6.55
2022-09-23T18:06:31.660Z,6.00
2022-09-23T18:09:01.549Z,5.60
2022-09-23T18:11:31.045Z,5.95
2022-09-23T18:14:03.803Z,6.00
2022-09-23T18:16:35.414Z,5.50
2022-09-23T18:19:04.576Z,5.68
2022-09-23T18:21:38.116Z,5.53
2022-09-23T18:24:30.877Z,4.32
2022-09-23T18:26:56.017Z,3.83
2022-09-23T18:29:23.409Z,4.07
2022-09-23T18:31:51.117Z,4.03
2022-09-23T18:34:18.988Z,3.53
2022-09-23T18:36:46.703Z,2.58
2022-09-23T18:39:14.338Z,2.00
2022-09-23T18:41:42.342Z,2.50
2022-09-23T18:44:10.104Z,2.10
2022-09-23T18:46:37.603Z,2.00
2022-09-23T18:49:23.716Z,2.72
2022-09-23T18:51:54.838Z,2.20
2022-09-23T18:54:24.092Z,2.15
2022-09-23T18:56:54.690Z,2.45
2022-09-23T18:59:28.026Z,2.55
2022-09-23T19:01:57.047Z,3.60
2022-09-23T19:04:26.188Z,3.65
2022-09-23T19:06:56.328Z,4.25
2022-09-23T19:09:24.199Z,5.13
2022-09-23T19:11:52.542Z,4.68
2022-09-23T19:14:20.231Z,5.38
2022-09-23T19:16:50.960Z,4.70
2022-09-23T19:19:18.672Z,4.05
2022-09-23T19:21:46.349Z,3.28
2022-09-23T19:24:16.213Z,2.92
2022-09-23T19:26:44.546Z,3.40
2022-09-23T19:29:19.373Z,5.50
2022-09-23T19:31:47.440Z,5.53
2022-09-23T19:34:17.766Z,5.95
2022-09-23T19:36:47.377Z,7.20
2022-09-23T19:39:20.897Z,5.28
2022-09-23T19:41:49.461Z,4.55
2022-09-23T19:44:17.283Z,3.92
2022-09-23T19:46:46.374Z,3.88
2022-09-23T19:49:13.863Z,3.72
2022-09-23T19:51:43.998Z,3.47
2022-09-23T19:54:11.929Z,3.45
2022-09-23T19:56:39.842Z,2.92
2022-09-23T19:59:09.435Z,2.58
2022-09-23T20:01:37.313Z,2.88
2022-09-23T20:04:05.628Z,2.92
2022-09-23T20:06:35.965Z,3.00
2022-09-23T20:09:03.753Z,2.75
2022-09-23T20:11:31.471Z,2.50
2022-09-23T20:14:02.203Z,2.50
2022-09-23T20:19:00.296Z,2.72
2022-09-23T20:21:29.488Z,2.20
2022-09-23T20:23:57.903Z,2.17
2022-09-23T20:26:44.577Z,2.10
2022-09-23T20:29:12.392Z,2.70
2022-09-23T20:31:42.975Z,2.65
2022-09-23T20:34:11.058Z,2.90
2022-09-23T20:36:41.367Z,3.15
2022-09-23T20:39:10.054Z,3.20
2022-09-23T20:41:39.107Z,2.97
2022-09-23T20:44:14.401Z,2.63
2022-09-23T20:46:48.431Z,3.20
2022-09-23T20:49:17.213Z,2.72
2022-09-23T20:51:44.839Z,3.70
2022-09-23T20:54:12.360Z,3.03
2022-09-23T20:56:40.017Z,3.67
2022-09-23T20:59:09.138Z,2.92
2022-09-23T21:01:36.997Z,2.92
2022-09-23T21:04:05.958Z,2.90
2022-09-23T21:06:37.236Z,2.17
2022-09-23T21:09:06.340Z,2.10
2022-09-23T21:11:34.270Z,2.25
2022-09-23T21:14:02.098Z,2.20
2022-09-23T21:16:30.711Z,1.88
2022-09-23T21:18:58.811Z,2.88
2022-09-23T21:21:26.697Z,3.22
2022-09-23T21:23:54.554Z,3.28
2022-09-23T21:26:24.663Z,3.95
2022-09-23T21:28:58.773Z,3.63
2022-09-23T21:31:33.875Z,4.55
2022-09-23T21:34:02.822Z,3.97
2022-09-23T21:36:32.801Z,3.70
2022-09-23T21:39:04.310Z,2.88
2022-09-23T21:41:32.341Z,3.10
2022-09-23T21:44:00.682Z,3.58
2022-09-23T21:46:28.977Z,2.80
2022-09-23T21:48:58.700Z,3.25
2022-09-23T21:51:31.423Z,3.75
2022-09-23T21:53:59.081Z,3.70
2022-09-23T21:56:36.568Z,4.45
2022-09-23T21:59:05.285Z,4.43
2022-09-23T22:01:35.220Z,4.30
2022-09-23T22:04:13.158Z,4.50
2022-09-23T22:06:41.117Z,4.30
2022-09-23T22:09:13.466Z,3.75
2022-09-23T22:12:00.156Z,3.35
2022-09-23T22:14:28.364Z,3.65
2022-09-23T22:16:59.211Z,2.88
2022-09-23T22:21:56.229Z,2.78
2022-09-23T22:24:23.996Z,3.50
2022-09-23T22:26:51.471Z,2.95
2022-09-23T22:29:37.367Z,3.10
2022-09-23T22:32:25.066Z,3.78
2022-09-23T22:34:52.888Z,4.85
2022-09-23T22:37:25.692Z,4.25
2022-09-23T22:39:54.169Z,4.10
2022-09-23T22:42:22.403Z,3.80
2022-09-23T22:44:50.868Z,4.57
2022-09-23T22:47:19.548Z,3.20
2022-09-23T22:49:47.457Z,4.40
2022-09-23T22:52:21.096Z,4.28
2022-09-23T22:54:48.774Z,3.80
2022-09-23T22:57:16.207Z,3.28
2022-09-23T22:59:47.823Z,3.10
2022-09-23T23:02:20.027Z,3.10
2022-09-23T23:04:48.507Z,2.97
2022-09-23T23:07:20.337Z,3.00
2022-09-23T23:09:50.002Z,2.78
2022-09-23T23:12:19.977Z,2.70
2022-09-23T23:14:48.723Z,2.90
2022-09-23T23:17:16.978Z,2.50
2022-09-23T23:19:44.420Z,2.40
2022-09-23T23:22:11.890Z,2.78
2022-09-23T23:24:39.358Z,2.95
2022-09-23T23:27:06.767Z,2.47
2022-09-23T23:29:34.204Z,2.35
2022-09-23T23:32:02.042Z,2.63
2022-09-23T23:34:29.723Z,2.47
2022-09-23T23:36:57.222Z,2.38
2022-09-23T23:39:25.761Z,3.10
2022-09-23T23:41:55.127Z,3.10
2022-09-23T23:44:24.680Z,2.90
2022-09-23T23:46:53.404Z,2.88
2022-09-23T23:49:21.626Z,2.97
2022-09-23T23:51:49.453Z,2.70
2022-09-23T23:54:16.860Z,3.47
2022-09-23T23:56:44.608Z,2.92
2022-09-23T23:59:12.400Z,2.92
